createdAt,value
2023-07-01T00:02:00.054Z,16.01
2023-07-01T00:04:28.980Z,16.01
2023-07-01T00:06:57.093Z,15.98
2023-07-01T00:09:24.567Z,15.95
2023-07-01T00:11:51.807Z,15.91
2023-07-01T00:14:18.686Z,15.90
2023-07-01T00:16:46.057Z,15.88
2023-07-01T00:19:13.749Z,15.84
2023-07-01T00:21:40.692Z,15.83
2023-07-01T00:24:08.142Z,15.79
2023-07-01T00:26:34.816Z,15.76
2023-07-01T00:29:02.022Z,15.74
2023-07-01T00:31:29.030Z,15.74
2023-07-01T00:33:56.959Z,15.73
2023-07-01T00:36:25.112Z,15.72
2023-07-01T00:38:51.949Z,15.70
2023-07-01T00:41:22.136Z,15.68
2023-07-01T00:43:49.769Z,15.69
2023-07-01T00:46:17.260Z,15.67
2023-07-01T00:48:44.465Z,15.67
2023-07-01T00:51:13.537Z,15.72
2023-07-01T00:53:41.471Z,15.75
2023-07-01T00:56:08.536Z,15.75
2023-07-01T00:58:35.816Z,15.74
2023-07-01T01:01:12.774Z,15.72
2023-07-01T01:03:48.397Z,15.69
2023-07-01T01:06:20.317Z,15.63
2023-07-01T01:09:11.143Z,15.57
2023-07-01T01:11:43.638Z,15.50
2023-07-01T01:14:12.757Z,15.44
2023-07-01T01:16:42.150Z,15.39
2023-07-01T01:19:27.872Z,15.34
2023-07-01T01:22:14.877Z,15.28
2023-07-01T01:24:46.647Z,15.24
2023-07-01T01:27:18.860Z,15.23
2023-07-01T01:29:46.559Z,15.23
2023-07-01T01:32:13.484Z,15.25
2023-07-01T01:34:40.180Z,15.30
2023-07-01T01:37:30.650Z,15.34
2023-07-01T01:40:10.402Z,15.36
2023-07-01T01:42:41.178Z,15.35
2023-07-01T01:45:08.768Z,15.37
2023-07-01T01:47:37.037Z,15.36
2023-07-01T01:50:09.210Z,15.36
2023-07-01T01:52:39.175Z,15.38
2023-07-01T01:55:08.802Z,15.37
2023-07-01T01:57:36.341Z,15.35
2023-07-01T02:00:08.871Z,15.30
2023-07-01T02:02:41.818Z,15.25
2023-07-01T02:05:09.005Z,15.18
2023-07-01T02:07:36.412Z,15.12
2023-07-01T02:10:03.592Z,15.06
2023-07-01T02:12:30.425Z,14.99
2023-07-01T02:14:58.054Z,14.95
2023-07-01T02:17:24.934Z,14.92
2023-07-01T02:19:52.156Z,14.93
2023-07-01T02:22:19.006Z,14.91
2023-07-01T02:24:45.966Z,14.91
2023-07-01T02:27:12.881Z,14.90
2023-07-01T02:29:39.857Z,14.90
2023-07-01T02:32:07.175Z,14.89
2023-07-01T02:34:35.415Z,14.89
2023-07-01T02:37:02.394Z,14.87
2023-07-01T02:39:29.104Z,14.85
2023-07-01T02:41:55.853Z,14.87
2023-07-01T02:44:22.708Z,14.85
2023-07-01T02:46:50.118Z,14.82
2023-07-01T02:49:17.757Z,14.80
2023-07-01T02:51:44.626Z,14.78
2023-07-01T02:54:11.445Z,14.76
2023-07-01T02:56:38.577Z,14.72
2023-07-01T02:59:05.947Z,14.71
2023-07-01T03:01:32.879Z,14.68
2023-07-01T03:04:05.738Z,14.67
2023-07-01T03:06:47.023Z,14.61
2023-07-01T03:09:15.325Z,14.57
2023-07-01T03:11:42.595Z,14.56
2023-07-01T03:14:09.234Z,14.55
2023-07-01T03:16:36.205Z,14.52
2023-07-01T03:19:06.333Z,14.53
2023-07-01T03:21:34.552Z,14.56
2023-07-01T03:24:01.688Z,14.59
2023-07-01T03:26:28.529Z,14.63
2023-07-01T03:28:55.851Z,14.64
2023-07-01T03:31:24.429Z,14.67
2023-07-01T03:33:52.228Z,14.71
2023-07-01T03:36:19.302Z,14.75
2023-07-01T03:38:47.042Z,14.77
2023-07-01T03:41:13.915Z,14.80
2023-07-01T03:43:40.749Z,14.86
2023-07-01T03:46:07.530Z,14.93
2023-07-01T03:48:34.964Z,14.97
2023-07-01T03:51:01.994Z,14.98
2023-07-01T03:53:28.962Z,15.00
2023-07-01T03:55:56.274Z,15.02
2023-07-01T03:58:25.630Z,15.06
2023-07-01T04:00:54.385Z,15.09
2023-07-01T04:03:24.196Z,15.09
2023-07-01T04:05:52.796Z,15.11
2023-07-01T04:08:22.159Z,15.14
2023-07-01T04:10:49.953Z,15.18
2023-07-01T04:13:16.689Z,15.25
2023-07-01T04:15:43.632Z,15.30
2023-07-01T04:18:11.036Z,15.35
2023-07-01T04:20:38.131Z,15.40
2023-07-01T04:23:04.832Z,15.46
2023-07-01T04:25:31.812Z,15.52
2023-07-01T04:27:59.818Z,15.58
2023-07-01T04:30:26.703Z,15.66
2023-07-01T04:32:53.777Z,15.74
2023-07-01T04:35:20.692Z,15.81
2023-07-01T04:37:48.043Z,15.87
2023-07-01T04:40:15.915Z,15.94
2023-07-01T04:42:51.003Z,15.99
2023-07-01T04:45:21.684Z,16.04
2023-07-01T04:47:49.406Z,16.10
2023-07-01T04:50:17.016Z,16.15
2023-07-01T04:52:44.351Z,16.22
2023-07-01T04:55:11.971Z,16.28
2023-07-01T04:57:38.795Z,16.35
2023-07-01T05:00:10.477Z,16.41
2023-07-01T05:02:38.176Z,16.48
2023-07-01T05:05:06.841Z,16.52
2023-07-01T05:07:33.923Z,16.57
2023-07-01T05:10:00.791Z,16.61
2023-07-01T05:12:27.566Z,16.67
2023-07-01T05:14:55.747Z,16.72
2023-07-01T05:17:22.704Z,16.78
2023-07-01T05:19:49.597Z,16.85
2023-07-01T05:22:16.579Z,16.94
2023-07-01T05:24:43.903Z,17.03
2023-07-01T05:27:10.745Z,17.12
2023-07-01T05:29:37.811Z,17.21
2023-07-01T05:32:05.087Z,17.29
2023-07-01T05:34:31.973Z,17.40
2023-07-01T05:36:58.896Z,17.50
2023-07-01T05:39:26.724Z,17.60
2023-07-01T05:41:53.872Z,17.72
2023-07-01T05:44:20.604Z,17.82
2023-07-01T05:46:47.423Z,17.92
2023-07-01T05:49:14.487Z,18.01
2023-07-01T05:51:41.878Z,18.09
2023-07-01T05:54:08.948Z,18.17
2023-07-01T05:56:36.053Z,18.24
2023-07-01T05:59:03.671Z,18.31
2023-07-01T06:01:30.917Z,18.37
2023-07-01T06:03:58.063Z,18.43
2023-07-01T06:06:24.974Z,18.48
2023-07-01T06:08:51.902Z,18.54
2023-07-01T06:11:19.276Z,18.62
2023-07-01T06:13:48.264Z,18.71
2023-07-01T06:16:15.902Z,18.79
2023-07-01T06:18:43.842Z,18.89
2023-07-01T06:21:10.664Z,18.99
2023-07-01T06:23:38.524Z,19.10
2023-07-01T06:26:06.152Z,19.21
2023-07-01T06:28:33.628Z,19.32
2023-07-01T06:31:00.998Z,19.44
2023-07-01T06:33:28.028Z,19.55
2023-07-01T06:35:55.369Z,19.65
2023-07-01T06:38:22.660Z,19.74
2023-07-01T06:40:50.763Z,19.82
2023-07-01T06:43:18.017Z,19.91
2023-07-01T06:45:45.081Z,19.99
2023-07-01T06:48:12.260Z,20.06
2023-07-01T06:50:40.546Z,20.14
2023-07-01T06:53:07.720Z,20.20
2023-07-01T06:55:36.449Z,20.29
2023-07-01T06:58:03.654Z,20.36
2023-07-01T07:00:31.136Z,20.43
2023-07-01T07:02:58.232Z,20.50
2023-07-01T07:05:25.236Z,20.57
2023-07-01T07:07:53.257Z,20.64
2023-07-01T07:10:19.981Z,20.69
2023-07-01T07:12:46.707Z,20.75
2023-07-01T07:15:13.587Z,20.83
2023-07-01T07:17:40.550Z,20.89
2023-07-01T07:20:08.940Z,20.96
2023-07-01T07:22:36.363Z,21.02
2023-07-01T07:25:03.484Z,21.11
2023-07-01T07:27:30.284Z,21.21
2023-07-01T07:29:57.154Z,21.31
2023-07-01T07:32:23.955Z,21.41
2023-07-01T07:34:50.807Z,21.52
2023-07-01T07:37:17.633Z,21.63
2023-07-01T07:39:44.782Z,21.74
2023-07-01T07:42:12.251Z,21.84
2023-07-01T07:44:39.233Z,21.94
2023-07-01T07:47:06.436Z,22.04
2023-07-01T07:49:33.437Z,22.14
2023-07-01T07:52:01.893Z,22.23
2023-07-01T07:54:29.448Z,22.31
2023-07-01T07:56:59.783Z,22.39
2023-07-01T07:59:27.607Z,22.47
2023-07-01T08:01:56.722Z,22.55
2023-07-01T08:04:26.726Z,22.63
2023-07-01T08:06:53.768Z,22.71
2023-07-01T08:09:21.041Z,22.77
2023-07-01T08:11:48.014Z,22.85
2023-07-01T08:14:14.881Z,22.93
2023-07-01T08:16:42.998Z,23.00
2023-07-01T08:19:10.726Z,23.06
2023-07-01T08:21:38.522Z,23.13
2023-07-01T08:24:09.379Z,23.21
2023-07-01T08:26:36.623Z,23.27
2023-07-01T08:29:06.795Z,23.36
2023-07-01T08:31:34.147Z,23.43
2023-07-01T08:34:03.084Z,23.51
2023-07-01T08:36:30.533Z,23.60
2023-07-01T08:38:57.610Z,23.68
2023-07-01T08:41:26.239Z,23.76
2023-07-01T08:43:54.092Z,23.85
2023-07-01T08:46:23.446Z,23.93
2023-07-01T08:48:50.998Z,23.99
2023-07-01T08:51:26.569Z,24.05
2023-07-01T08:53:54.851Z,24.11
2023-07-01T08:56:22.656Z,24.17
2023-07-01T08:58:50.182Z,24.22
2023-07-01T09:01:18.338Z,24.26
2023-07-01T09:03:49.373Z,24.33
2023-07-01T09:06:16.504Z,24.40
2023-07-01T09:08:43.347Z,24.46
2023-07-01T09:11:12.133Z,24.54
2023-07-01T09:13:39.833Z,24.61
2023-07-01T09:16:07.594Z,24.69
2023-07-01T09:18:35.551Z,24.77
2023-07-01T09:21:10.466Z,24.86
2023-07-01T09:23:40.801Z,24.96
2023-07-01T09:26:09.196Z,25.04
2023-07-01T09:28:47.798Z,25.13
2023-07-01T09:31:16.107Z,25.23
2023-07-01T09:34:03.726Z,25.33
2023-07-01T09:36:32.018Z,25.42
2023-07-01T09:39:01.661Z,25.49
2023-07-01T09:41:29.220Z,25.57
2023-07-01T09:43:58.019Z,25.65
2023-07-01T09:46:43.076Z,25.73
2023-07-01T09:49:10.482Z,25.81
2023-07-01T09:51:52.360Z,25.86
2023-07-01T09:54:30.904Z,25.92
2023-07-01T09:56:59.940Z,26.01
2023-07-01T09:59:28.081Z,26.09
2023-07-01T10:01:56.666Z,26.16
2023-07-01T10:04:28.984Z,26.24
2023-07-01T10:06:57.012Z,26.32
2023-07-01T10:09:26.327Z,26.39
2023-07-01T10:11:56.445Z,26.48
2023-07-01T10:14:26.973Z,26.57
2023-07-01T10:16:54.487Z,26.64
2023-07-01T10:19:32.353Z,26.69
2023-07-01T10:22:20.581Z,26.76
2023-07-01T10:25:09.598Z,26.79
2023-07-01T10:27:42.659Z,26.80
2023-07-01T10:30:12.752Z,26.80
2023-07-01T10:32:40.461Z,26.80
2023-07-01T10:35:10.096Z,26.81
2023-07-01T10:37:37.673Z,26.80
2023-07-01T10:40:31.152Z,26.79
2023-07-01T10:43:31.260Z,26.78
2023-07-01T10:46:24.505Z,26.76
2023-07-01T10:49:04.349Z,26.71
2023-07-01T10:51:52.342Z,26.66
2023-07-01T10:54:33.331Z,26.62
2023-07-01T10:57:14.526Z,26.58
2023-07-01T10:59:41.826Z,26.53
2023-07-01T11:02:11.360Z,26.49
2023-07-01T11:04:54.208Z,26.44
2023-07-01T11:07:25.409Z,26.40
2023-07-01T11:10:12.466Z,26.38
2023-07-01T11:12:39.908Z,26.39
2023-07-01T11:15:07.675Z,26.41
2023-07-01T11:17:35.536Z,26.43
2023-07-01T11:20:04.318Z,26.45
2023-07-01T11:22:31.626Z,26.47
2023-07-01T11:25:05.086Z,26.48
2023-07-01T11:27:32.634Z,26.51
2023-07-01T11:30:00.217Z,26.53
2023-07-01T11:32:26.944Z,26.53
2023-07-01T11:34:57.935Z,26.51
2023-07-01T11:37:28.142Z,26.50
2023-07-01T11:39:55.171Z,26.49
2023-07-01T11:42:26.145Z,26.50
2023-07-01T11:44:53.449Z,26.51
2023-07-01T11:47:21.150Z,26.52
2023-07-01T11:49:49.092Z,26.53
2023-07-01T11:52:24.985Z,26.55
2023-07-01T11:54:55.078Z,26.56
2023-07-01T11:57:23.240Z,26.58
2023-07-01T11:59:56.947Z,26.61
2023-07-01T12:02:31.966Z,26.62
2023-07-01T12:05:00.284Z,26.65
2023-07-01T12:07:29.018Z,26.68
2023-07-01T12:09:56.260Z,26.72
2023-07-01T12:12:37.100Z,26.75
2023-07-01T12:15:08.784Z,26.78
2023-07-01T12:17:37.108Z,26.76
2023-07-01T12:20:09.218Z,26.72
2023-07-01T12:22:38.407Z,26.72
2023-07-01T12:25:05.939Z,26.71
2023-07-01T12:27:34.086Z,26.75
2023-07-01T12:30:01.770Z,26.81
2023-07-01T12:32:28.812Z,26.86
2023-07-01T12:34:57.677Z,26.91
2023-07-01T12:37:26.003Z,26.97
2023-07-01T12:39:54.317Z,27.04
2023-07-01T12:42:22.757Z,27.09
2023-07-01T12:44:49.596Z,27.12
2023-07-01T12:47:17.058Z,27.16
2023-07-01T12:49:44.179Z,27.18
2023-07-01T12:52:11.003Z,27.20
2023-07-01T12:54:38.696Z,27.22
2023-07-01T12:57:05.539Z,27.23
2023-07-01T12:59:32.585Z,27.26
2023-07-01T13:01:59.398Z,27.29
2023-07-01T13:04:27.632Z,27.33
2023-07-01T13:06:54.677Z,27.38
2023-07-01T13:09:44.277Z,27.40
2023-07-01T13:12:13.434Z,27.37
2023-07-01T13:14:40.466Z,27.31
2023-07-01T13:17:07.701Z,27.25
2023-07-01T13:19:35.049Z,27.24
2023-07-01T13:22:01.791Z,27.22
2023-07-01T13:24:28.867Z,27.20
2023-07-01T13:27:01.557Z,27.18
2023-07-01T13:29:32.384Z,27.17
2023-07-01T13:32:03.957Z,27.18
2023-07-01T13:34:38.358Z,27.19
2023-07-01T13:37:05.797Z,27.20
2023-07-01T13:39:45.347Z,27.20
2023-07-01T13:42:15.980Z,27.21
2023-07-01T13:44:48.881Z,27.25
2023-07-01T13:47:31.279Z,27.29
2023-07-01T13:49:58.524Z,27.29
2023-07-01T13:52:25.606Z,27.29
2023-07-01T13:54:52.593Z,27.31
2023-07-01T13:57:29.078Z,27.30
2023-07-01T13:59:57.282Z,27.30
2023-07-01T14:02:25.568Z,27.32
2023-07-01T14:04:52.904Z,27.31
2023-07-01T14:07:19.888Z,27.29
2023-07-01T14:09:47.685Z,27.29
2023-07-01T14:12:17.333Z,27.29
2023-07-01T14:14:45.449Z,27.30
2023-07-01T14:17:19.260Z,27.29
2023-07-01T14:19:54.378Z,27.28
2023-07-01T14:22:21.761Z,27.29
2023-07-01T14:24:49.258Z,27.31
2023-07-01T14:27:27.164Z,27.32
2023-07-01T14:29:54.371Z,27.34
2023-07-01T14:32:21.148Z,27.35
2023-07-01T14:34:47.853Z,27.37
2023-07-01T14:37:15.520Z,27.39
2023-07-01T14:39:47.884Z,27.35
2023-07-01T14:42:24.844Z,27.34
2023-07-01T14:44:52.633Z,27.36
2023-07-01T14:47:20.302Z,27.38
2023-07-01T14:49:47.834Z,27.39
2023-07-01T14:52:16.981Z,27.41
2023-07-01T14:54:46.584Z,27.41
2023-07-01T14:57:15.720Z,27.40
2023-07-01T14:59:43.255Z,27.40
2023-07-01T15:02:10.284Z,27.41
2023-07-01T15:04:37.260Z,27.41
2023-07-01T15:07:04.723Z,27.40
2023-07-01T15:09:32.045Z,27.39
2023-07-01T15:11:59.374Z,27.39
2023-07-01T15:14:26.384Z,27.39
2023-07-01T15:16:54.600Z,27.40
2023-07-01T15:19:23.050Z,27.42
2023-07-01T15:21:50.420Z,27.44
2023-07-01T15:24:17.539Z,27.46
2023-07-01T15:26:44.409Z,27.49
2023-07-01T15:29:11.994Z,27.51
2023-07-01T15:31:39.003Z,27.52
2023-07-01T15:34:06.182Z,27.51
2023-07-01T15:36:32.893Z,27.49
2023-07-01T15:38:59.622Z,27.50
2023-07-01T15:41:41.658Z,27.51
2023-07-01T15:44:14.214Z,27.53
2023-07-01T15:46:41.482Z,27.55
2023-07-01T15:49:08.776Z,27.57
2023-07-01T15:51:36.521Z,27.59
2023-07-01T15:54:03.765Z,27.61
2023-07-01T15:56:31.039Z,27.64
2023-07-01T15:58:58.971Z,27.66
2023-07-01T16:01:27.218Z,27.69
2023-07-01T16:03:54.548Z,27.72
2023-07-01T16:06:22.710Z,27.74
2023-07-01T16:08:52.423Z,27.76
2023-07-01T16:11:31.235Z,27.78
2023-07-01T16:14:01.255Z,27.80
2023-07-01T16:19:04.276Z,27.85
2023-07-01T16:21:31.618Z,27.88
2023-07-01T16:23:59.059Z,27.90
2023-07-01T16:26:42.224Z,27.93
2023-07-01T16:29:09.380Z,27.96
2023-07-01T16:31:38.741Z,27.98
2023-07-01T16:34:11.738Z,28.00
2023-07-01T16:36:39.656Z,28.03
2023-07-01T16:39:12.526Z,28.05
2023-07-01T16:41:40.107Z,28.07
2023-07-01T16:44:07.296Z,28.09
2023-07-01T16:46:39.038Z,28.10
2023-07-01T16:49:08.770Z,28.12
2023-07-01T16:51:38.009Z,28.14
2023-07-01T16:54:05.631Z,28.14
2023-07-01T16:56:53.265Z,28.15
2023-07-01T16:59:32.846Z,28.17
2023-07-01T17:01:59.882Z,28.18
2023-07-01T17:04:31.704Z,28.20
2023-07-01T17:06:59.389Z,28.21
2023-07-01T17:09:53.068Z,28.23
2023-07-01T17:12:31.988Z,28.24
2023-07-01T17:15:00.238Z,28.25
2023-07-01T17:17:33.140Z,28.27
2023-07-01T17:20:06.538Z,28.27
2023-07-01T17:22:34.833Z,28.29
2023-07-01T17:25:02.498Z,28.29
2023-07-01T17:27:29.428Z,28.29
2023-07-01T17:29:57.861Z,28.29
2023-07-01T17:32:24.976Z,28.29
2023-07-01T17:35:04.439Z,28.26
2023-07-01T17:37:31.166Z,28.21
2023-07-01T17:39:58.851Z,28.17
2023-07-01T17:42:25.911Z,28.11
2023-07-01T17:44:55.724Z,28.02
2023-07-01T17:47:23.181Z,27.94
2023-07-01T17:49:50.426Z,27.85
2023-07-01T17:52:17.522Z,27.77
2023-07-01T17:54:44.910Z,27.67
2023-07-01T17:57:12.682Z,27.60
2023-07-01T17:59:39.894Z,27.51
2023-07-01T18:02:07.879Z,27.43
2023-07-01T18:04:34.998Z,27.34
2023-07-01T18:07:01.947Z,27.27
2023-07-01T18:09:28.904Z,27.20
2023-07-01T18:11:56.357Z,27.12
2023-07-01T18:14:26.505Z,27.05
2023-07-01T18:16:54.088Z,26.97
2023-07-01T18:19:22.489Z,26.90
2023-07-01T18:21:49.501Z,26.82
2023-07-01T18:24:17.327Z,26.75
2023-07-01T18:26:47.914Z,26.67
2023-07-01T18:29:17.599Z,26.60
2023-07-01T18:31:44.447Z,26.52
2023-07-01T18:34:14.152Z,26.45
2023-07-01T18:36:41.194Z,26.36
2023-07-01T18:39:09.061Z,26.29
2023-07-01T18:41:37.352Z,26.21
2023-07-01T18:44:06.965Z,26.11
2023-07-01T18:46:34.402Z,25.94
2023-07-01T18:49:02.141Z,25.79
2023-07-01T18:51:30.077Z,25.66
2023-07-01T18:53:57.946Z,25.56
2023-07-01T18:56:25.700Z,25.50
2023-07-01T18:58:53.695Z,25.46
2023-07-01T19:01:20.426Z,25.38
2023-07-01T19:03:47.619Z,25.28
2023-07-01T19:06:15.275Z,25.23
2023-07-01T19:08:43.253Z,25.18
2023-07-01T19:11:12.217Z,25.14
2023-07-01T19:13:39.792Z,25.10
2023-07-01T19:16:07.501Z,25.05
2023-07-01T19:18:34.723Z,25.01
2023-07-01T19:21:01.898Z,24.96
2023-07-01T19:23:34.593Z,24.93
2023-07-01T19:26:01.345Z,24.88
2023-07-01T19:28:28.387Z,24.85
2023-07-01T19:30:56.287Z,24.81
2023-07-01T19:33:23.579Z,24.77
2023-07-01T19:35:53.315Z,24.71
2023-07-01T19:38:21.288Z,24.50
2023-07-01T19:40:49.073Z,24.32
2023-07-01T19:43:16.459Z,24.27
2023-07-01T19:45:44.328Z,24.25
2023-07-01T19:48:11.536Z,24.23
2023-07-01T19:50:40.138Z,24.22
2023-07-01T19:53:07.940Z,24.21
2023-07-01T19:55:34.836Z,24.20
2023-07-01T19:58:01.555Z,24.17
2023-07-01T20:00:29.193Z,24.16
2023-07-01T20:02:56.403Z,24.14
2023-07-01T20:05:23.653Z,24.12
2023-07-01T20:07:51.205Z,24.08
2023-07-01T20:10:28.931Z,24.06
2023-07-01T20:12:59.006Z,24.02
2023-07-01T20:15:26.588Z,23.99
2023-07-01T20:17:53.483Z,23.92
2023-07-01T20:20:20.374Z,23.87
2023-07-01T20:22:47.546Z,23.71
2023-07-01T20:25:14.472Z,23.46
2023-07-01T20:27:41.445Z,23.21
2023-07-01T20:30:11.798Z,23.00
2023-07-01T20:32:39.153Z,22.89
2023-07-01T20:35:07.166Z,22.87
2023-07-01T20:37:34.252Z,22.83
2023-07-01T20:40:04.398Z,22.75
2023-07-01T20:42:31.412Z,22.66
2023-07-01T20:44:58.232Z,22.64
2023-07-01T20:47:24.992Z,22.63
2023-07-01T20:49:52.566Z,22.49
2023-07-01T20:52:21.165Z,22.26
2023-07-01T20:54:48.057Z,22.11
2023-07-01T20:57:16.851Z,22.09
2023-07-01T20:59:44.829Z,22.09
2023-07-01T21:02:13.049Z,22.03
2023-07-01T21:04:40.279Z,22.01
2023-07-01T21:07:08.473Z,22.00
2023-07-01T21:09:36.058Z,21.97
2023-07-01T21:12:04.070Z,21.93
2023-07-01T21:14:31.328Z,21.94
2023-07-01T21:16:58.219Z,21.95
2023-07-01T21:19:27.339Z,21.98
2023-07-01T21:21:54.546Z,22.00
2023-07-01T21:24:21.315Z,21.99
2023-07-01T21:26:48.395Z,21.99
2023-07-01T21:29:17.487Z,21.98
2023-07-01T21:31:52.048Z,21.96
2023-07-01T21:34:20.908Z,21.85
2023-07-01T21:36:52.818Z,21.79
2023-07-01T21:39:22.677Z,21.77
2023-07-01T21:41:49.401Z,21.76
2023-07-01T21:44:17.953Z,21.74
2023-07-01T21:46:45.267Z,21.67
2023-07-01T21:49:13.965Z,21.56
2023-07-01T21:52:07.178Z,21.52
2023-07-01T21:54:34.062Z,21.50
2023-07-01T21:57:01.064Z,21.49
2023-07-01T21:59:28.049Z,21.50
2023-07-01T22:01:54.936Z,21.51
2023-07-01T22:04:22.020Z,21.50
2023-07-01T22:06:49.107Z,21.50
2023-07-01T22:09:16.736Z,21.49
2023-07-01T22:11:44.593Z,21.48
2023-07-01T22:14:12.695Z,21.49
2023-07-01T22:16:40.213Z,21.47
2023-07-01T22:19:07.626Z,21.46
2023-07-01T22:21:34.517Z,21.42
2023-07-01T22:24:05.716Z,21.41
2023-07-01T22:26:34.341Z,21.39
2023-07-01T22:29:01.202Z,21.36
2023-07-01T22:31:29.249Z,21.27
2023-07-01T22:33:57.553Z,21.20
2023-07-01T22:36:25.999Z,21.18
2023-07-01T22:38:55.949Z,21.17
2023-07-01T22:41:22.817Z,21.18
2023-07-01T22:43:49.557Z,21.18
2023-07-01T22:46:16.462Z,21.18
2023-07-01T22:48:45.783Z,21.18
2023-07-01T22:51:12.704Z,21.18
2023-07-01T22:53:40.921Z,21.17
2023-07-01T22:56:07.818Z,21.16
2023-07-01T22:58:35.760Z,21.12
2023-07-01T23:01:02.485Z,20.99
2023-07-01T23:03:29.740Z,20.93
2023-07-01T23:05:56.540Z,20.90
2023-07-01T23:08:23.728Z,20.89
2023-07-01T23:10:51.336Z,20.88
2023-07-01T23:13:19.938Z,20.88
2023-07-01T23:15:47.024Z,20.88
2023-07-01T23:18:13.834Z,20.89
2023-07-01T23:20:41.497Z,20.90
2023-07-01T23:23:08.498Z,20.90
2023-07-01T23:25:35.651Z,20.91
2023-07-01T23:28:10.538Z,20.89
2023-07-01T23:30:42.099Z,20.84
2023-07-01T23:33:09.776Z,20.82
2023-07-01T23:35:37.331Z,20.80
2023-07-01T23:38:04.174Z,20.79
2023-07-01T23:40:31.492Z,20.77
2023-07-01T23:42:58.716Z,20.74
2023-07-01T23:45:26.121Z,20.73
2023-07-01T23:47:53.416Z,20.73
2023-07-01T23:50:22.037Z,20.70
2023-07-01T23:52:48.922Z,20.63
2023-07-01T23:55:16.194Z,20.60
2023-07-01T23:57:43.659Z,20.59
